Date,TemperatureHighF,TemperatureAvgF,TemperatureLowF,DewpointHighF,DewpointAvgF,DewpointLowF,HumidityHigh,HumidityAvg,HumidityLow,PressureMaxIn,PressureMinIn,WindSpeedMaxMPH,WindSpeedAvgMPH,GustSpeedMaxMPH,PrecipitationSumIn
2013-9-1,86,73,61,73,66,60,98,81,62,29.88,29.77,4,1,10,0.00
2013-9-2,74,66,55,62,58,53,94,78,54,30.07,29.88,5,2,13,0.00
2013-9-3,74,62,49,57,54,48,97,78,49,30.17,30.07,3,1,8,0.00
2013-9-4,83,68,54,65,59,53,97,76,51,30.20,30.12,3,1,10,0.00
2013-9-5,76,68,59,65,59,50,97,75,56,30.31,30.16,6,3,15,0.00
2013-9-6,85,72,58,68,60,50,84,69,54,30.28,30.05,4,2,12,0.00
2013-9-7,89,77,67,71,66,62,89,71,49,30.05,29.92,5,2,17,0.00
2013-9-8,75,70,66,69,66,64,92,87,79,30.07,29.97,5,3,14,0.00
2013-9-9,92,79,67,77,71,65,97,79,59,30.00,29.84,5,3,15,0.00
2013-9-10,94,84,74,70,65,59,71,54,32,30.02,29.90,7,4,19,0.00
2013-9-11,84,76,68,72,67,65,90,75,54,30.09,30.00,5,1,12,0.02
2013-9-12,77,68,58,65,58,48,98,74,41,30.17,30.03,14,3,22,0.01
2013-9-13,67,58,48,53,42,37,84,58,34,30.28,30.17,5,2,15,0.00
2013-9-14,71,57,42,51,46,41,97,68,41,30.27,30.09,4,1,10,0.00
2013-9-15,58,55,52,56,52,46,96,90,64,30.27,30.05,4,1,11,1.06
2013-9-16,67,56,47,54,48,43,96,76,49,30.46,30.28,4,2,14,0.00
2013-9-17,70,58,44,56,51,43,96,80,58,30.41,30.17,5,2,14,0.00
2013-9-18,75,66,58,69,62,54,94,86,71,30.17,29.96,5,2,13,0.16
2013-9-19,91,76,69,74,69,65,96,79,50,29.98,29.79,7,3,20,0.11
2013-9-20,71,64,55,65,58,52,96,79,62,29.91,29.79,5,2,16,0.05
2013-9-21,64,56,45,52,49,43,96,79,55,30.03,29.90,6,2,18,0.00
2013-9-22,68,54,41,49,46,40,98,77,46,30.15,30.03,4,1,11,0.00
2013-9-23,69,57,47,53,49,45,94,77,53,30.19,30.09,4,3,10,0.00
2013-9-24,71,59,49,53,50,46,91,74,46,30.11,29.99,5,3,14,0.00
2013-9-25,72,60,46,56,50,45,97,71,48,30.06,30.00,5,2,13,0.00
2013-9-26,78,62,46,57,51,45,98,72,34,30.14,30.04,4,2,10,0.00
2013-9-27,81,67,54,57,53,49,90,65,37,30.21,30.09,5,2,16,0.00
2013-9-28,81,67,54,66,56,48,95,71,48,30.11,29.92,9,4,25,0.10
2013-9-29,71,58,50,55,48,41,97,72,35,30.14,30.03,3,1,8,0.01
2013-9-30,75,60,44,52,47,43,95,64,34,30.08,29.91,5,2,14,0.00